createdAt,value
2018-10-06T16:15:54.802Z,3.30
2018-10-06T16:18:24.290Z,6.43
2018-10-06T16:20:52.780Z,3.87
2018-10-06T16:23:21.333Z,3.60
2018-10-06T16:25:49.839Z,3.83
2018-10-06T16:28:18.360Z,3.97
2018-10-06T16:30:46.815Z,5.00
2018-10-06T16:33:15.249Z,3.73
2018-10-06T16:35:43.702Z,2.90
2018-10-06T16:38:12.134Z,3.30
2018-10-06T16:40:40.585Z,3.30
2018-10-06T16:43:09.042Z,3.60
2018-10-06T16:45:37.480Z,3.90
2018-10-06T16:48:05.960Z,3.30
2018-10-06T16:50:34.418Z,3.83
2018-10-06T16:53:02.835Z,7.13
2018-10-06T16:55:31.309Z,7.60
2018-10-06T16:57:59.715Z,12.90
2018-10-06T17:00:28.244Z,9.00
2018-10-06T17:02:56.638Z,9.17
2018-10-06T17:05:25.090Z,5.90
2018-10-06T17:07:53.542Z,5.60
2018-10-06T17:10:21.993Z,5.90
2018-10-06T17:12:50.484Z,11.93
2018-10-06T17:15:18.893Z,9.43
2018-10-06T17:17:47.322Z,5.27
2018-10-06T17:20:15.788Z,4.40
2018-10-06T17:22:44.189Z,4.37
2018-10-06T17:25:12.816Z,4.43
2018-10-06T17:27:45.186Z,4.80
2018-10-06T17:30:14.519Z,4.80
2018-10-06T17:32:42.965Z,5.80
2018-10-06T17:35:11.446Z,6.60
2018-10-06T17:37:39.900Z,6.83
2018-10-06T17:40:08.449Z,6.33
2018-10-06T17:42:36.948Z,4.90
2018-10-06T17:45:05.545Z,5.37
2018-10-06T17:47:34.004Z,5.37
2018-10-06T17:50:04.171Z,5.63
2018-10-06T17:52:32.492Z,5.40
2018-10-06T17:55:00.939Z,5.63
2018-10-06T17:57:29.416Z,5.43
2018-10-06T17:59:57.854Z,6.10
2018-10-06T18:02:26.398Z,6.70
2018-10-06T18:04:54.902Z,5.13
2018-10-06T18:07:23.354Z,7.37
2018-10-06T18:09:51.813Z,8.07
2018-10-06T18:12:20.258Z,7.70
2018-10-06T18:14:48.685Z,9.03
2018-10-06T18:17:23.933Z,14.77
2018-10-06T18:19:52.356Z,15.93
2018-10-06T18:22:21.097Z,13.73
2018-10-06T18:24:49.546Z,12.13
2018-10-06T18:27:18.899Z,15.20
2018-10-06T18:29:47.292Z,9.00
2018-10-06T18:32:15.734Z,10.30
2018-10-06T18:34:44.181Z,11.27
2018-10-06T18:37:12.740Z,11.33
2018-10-06T18:39:41.119Z,8.40
2018-10-06T18:42:09.571Z,9.07
2018-10-06T18:44:38.034Z,8.37
2018-10-06T18:47:06.468Z,7.90
2018-10-06T18:49:34.914Z,7.93
2018-10-06T18:52:03.381Z,9.00
2018-10-06T18:54:31.802Z,8.97
2018-10-06T18:57:00.246Z,10.13
2018-10-06T18:59:28.656Z,9.07
2018-10-06T19:01:57.126Z,10.03
2018-10-06T19:04:25.753Z,10.13
2018-10-06T19:06:54.227Z,9.77
2018-10-06T19:09:22.724Z,7.00
2018-10-06T19:15:22.761Z,9.50
2018-10-06T19:17:51.246Z,9.10
2018-10-06T19:20:19.697Z,10.70
2018-10-06T19:22:48.165Z,9.50
2018-10-06T19:25:16.739Z,10.50
2018-10-06T19:27:45.230Z,11.67
2018-10-06T19:30:13.756Z,10.23
2018-10-06T19:32:42.209Z,10.07
2018-10-06T19:35:10.722Z,10.87
2018-10-06T19:37:39.277Z,9.50
2018-10-06T19:40:07.785Z,8.30
2018-10-06T19:42:36.261Z,10.47
2018-10-06T19:45:05.543Z,10.30
2018-10-06T19:47:34.066Z,9.50
2018-10-06T19:50:02.559Z,8.97
2018-10-06T19:52:31.051Z,8.53
2018-10-06T19:54:59.536Z,11.70
2018-10-06T19:57:28.051Z,7.37
2018-10-06T19:59:56.638Z,10.50
2018-10-06T20:02:25.153Z,9.40
2018-10-06T20:04:53.677Z,9.60
2018-10-06T20:07:22.275Z,9.90
2018-10-06T20:09:50.767Z,9.83
2018-10-06T20:12:19.438Z,9.57
2018-10-06T20:14:47.900Z,9.87
2018-10-06T20:17:16.522Z,8.90
2018-10-06T20:19:45.056Z,10.70
2018-10-06T20:22:13.627Z,8.83
2018-10-06T20:24:42.114Z,8.07
2018-10-06T20:27:10.812Z,9.23
2018-10-06T20:29:40.141Z,9.20
2018-10-06T20:32:08.624Z,9.17
2018-10-06T20:34:37.294Z,7.70
2018-10-06T20:37:05.912Z,8.87
2018-10-06T20:39:35.079Z,9.13
2018-10-06T20:42:03.588Z,9.30
2018-10-06T20:44:32.093Z,11.40
2018-10-06T20:47:01.445Z,10.53
2018-10-06T20:49:29.931Z,11.80
2018-10-06T20:51:58.425Z,9.80
2018-10-06T20:54:27.178Z,10.87
2018-10-06T20:56:55.648Z,9.07
2018-10-06T20:59:24.149Z,9.30
2018-10-06T21:01:52.661Z,9.23
2018-10-06T21:04:21.187Z,9.23
2018-10-06T21:06:49.662Z,8.93
2018-10-06T21:09:18.428Z,8.80
2018-10-06T21:11:46.882Z,10.70
2018-10-06T21:14:15.386Z,9.23
2018-10-06T21:16:43.901Z,8.43
2018-10-06T21:19:12.370Z,8.57
2018-10-06T21:21:40.847Z,9.23
2018-10-06T21:24:09.479Z,9.43
2018-10-06T21:26:37.926Z,9.20
2018-10-06T21:29:06.562Z,9.30
2018-10-06T21:31:34.990Z,8.10
2018-10-06T21:34:03.538Z,11.20
2018-10-06T21:36:32.833Z,8.93
2018-10-06T21:39:01.268Z,12.97
2018-10-06T21:41:30.101Z,11.30
2018-10-06T21:43:58.759Z,12.33
2018-10-06T21:46:28.100Z,9.37
2018-10-06T21:48:56.630Z,9.63
2018-10-06T21:51:25.467Z,8.00
2018-10-06T21:53:54.539Z,8.50
2018-10-06T21:56:23.070Z,8.93
2018-10-06T21:58:51.566Z,8.30
2018-10-06T22:01:22.306Z,9.37
2018-10-06T22:03:50.935Z,9.13
2018-10-06T22:06:19.443Z,9.40
2018-10-06T22:08:51.991Z,10.07
2018-10-06T22:11:20.552Z,10.10
2018-10-06T22:13:49.069Z,14.07
2018-10-06T22:16:17.598Z,15.53
2018-10-06T22:18:46.872Z,16.57
2018-10-06T22:21:15.729Z,20.53
2018-10-06T22:23:44.212Z,16.00
2018-10-06T22:26:12.804Z,11.03
2018-10-06T22:28:41.260Z,16.60
2018-10-06T22:31:09.746Z,13.53
2018-10-06T22:33:38.206Z,13.90
2018-10-06T22:36:06.722Z,13.93
2018-10-06T22:38:35.258Z,15.67
2018-10-06T22:41:04.662Z,19.63
2018-10-06T22:43:33.160Z,16.70
2018-10-06T22:46:01.628Z,15.20
2018-10-06T22:48:30.122Z,13.80
2018-10-06T22:50:58.595Z,14.90
2018-10-06T22:53:27.084Z,12.87
2018-10-06T22:55:55.574Z,13.73
2018-10-06T22:58:24.173Z,12.00
2018-10-06T23:00:52.661Z,14.57
2018-10-06T23:03:21.159Z,14.13
2018-10-06T23:05:50.021Z,15.60
2018-10-06T23:08:18.555Z,21.07
2018-10-06T23:10:46.962Z,24.50
2018-10-06T23:13:15.437Z,25.37
2018-10-06T23:15:43.912Z,30.70
2018-10-06T23:18:12.405Z,31.10
2018-10-06T23:20:40.868Z,31.27
2018-10-06T23:23:09.333Z,34.40
2018-10-06T23:25:37.827Z,36.83
2018-10-06T23:28:06.311Z,38.90
2018-10-06T23:30:34.844Z,44.30
2018-10-06T23:33:03.326Z,45.70
2018-10-06T23:35:32.065Z,43.80
2018-10-06T23:38:00.487Z,48.40
2018-10-06T23:40:28.957Z,47.17
2018-10-06T23:42:57.461Z,49.30
2018-10-06T23:45:25.971Z,52.57
2018-10-06T23:47:54.492Z,51.03
2018-10-06T23:50:22.986Z,50.13
2018-10-06T23:52:51.416Z,52.03
2018-10-06T23:55:19.847Z,50.00
2018-10-06T23:57:48.328Z,55.53
